Brasie Corners, New York
Current Conditions -  °F | °C
As of 11:03 PM on Thursday 27 Nov 2014 (Local Time) from KGTB Reporting Station
Unknown Precip Unknown Precip  
Wind Chill: 25°   Ceiling: 400
Heat Index: 25°   Visibility: 9mi
Dew Point: 25°   Wind: 2mph
Humidity: 100%   Direction: 320°NW
Pressure: 30.04"   Gusts: NA
Location:  44.3309°N, 75.4775°W
Report Text: KGTB 280403Z AUTO 32002KT 9SM UP BKN004 OVC008 M04/M04 A3004 RMK AO2
Loading
Personal Weather Stations






























Interactive Weather Map New forecast layout! Learn more

10-Day Weather Forecast

Advertisements
Track Severe Weather on mobile